sensor_id;sensor_type;location;lat;lon;timestamp;temperature;humidity
22035;DHT22;11181;51.002;4.356;2022-09-30T00:01:45;12.20;99.90
22035;DHT22;11181;51.002;4.356;2022-09-30T00:04:14;12.20;99.90
22035;DHT22;11181;51.002;4.356;2022-09-30T00:06:42;12.20;99.90
22035;DHT22;11181;51.002;4.356;2022-09-30T00:09:10;12.30;99.90
22035;DHT22;11181;51.002;4.356;2022-09-30T00:11:37;12.20;99.90
22035;DHT22;11181;51.002;4.356;2022-09-30T00:14:06;12.30;99.90
22035;DHT22;11181;51.002;4.356;2022-09-30T00:16:35;12.30;99.90
22035;DHT22;11181;51.002;4.356;2022-09-30T00:19:03;12.20;99.90
22035;DHT22;11181;51.002;4.356;2022-09-30T00:21:31;12.20;99.90
22035;DHT22;11181;51.002;4.356;2022-09-30T00:24:00;12.10;99.90
22035;DHT22;11181;51.002;4.356;2022-09-30T00:26:27;12.10;99.90
22035;DHT22;11181;51.002;4.356;2022-09-30T00:28:57;12.10;99.90
22035;DHT22;11181;51.002;4.356;2022-09-30T00:31:26;12.20;99.90
22035;DHT22;11181;51.002;4.356;2022-09-30T00:33:53;12.20;99.90
22035;DHT22;11181;51.002;4.356;2022-09-30T00:36:33;12.20;99.90
22035;DHT22;11181;51.002;4.356;2022-09-30T00:39:02;12.20;99.90
22035;DHT22;11181;51.002;4.356;2022-09-30T00:41:30;12.20;99.90
22035;DHT22;11181;51.002;4.356;2022-09-30T00:43:57;12.30;99.90
22035;DHT22;11181;51.002;4.356;2022-09-30T00:46:28;12.20;99.90
22035;DHT22;11181;51.002;4.356;2022-09-30T00:48:58;12.20;99.90
22035;DHT22;11181;51.002;4.356;2022-09-30T00:51:29;12.10;99.90
22035;DHT22;11181;51.002;4.356;2022-09-30T00:54:00;12.20;99.90
22035;DHT22;11181;51.002;4.356;2022-09-30T00:56:33;12.20;99.90
22035;DHT22;11181;51.002;4.356;2022-09-30T00:59:06;12.20;99.90
22035;DHT22;11181;51.002;4.356;2022-09-30T01:01:35;12.10;99.90
22035;DHT22;11181;51.002;4.356;2022-09-30T01:04:09;12.00;99.90
22035;DHT22;11181;51.002;4.356;2022-09-30T01:06:37;12.00;99.90
22035;DHT22;11181;51.002;4.356;2022-09-30T01:09:04;12.00;99.90
22035;DHT22;11181;51.002;4.356;2022-09-30T01:11:33;11.90;99.90
22035;DHT22;11181;51.002;4.356;2022-09-30T01:14:03;11.90;99.90
22035;DHT22;11181;51.002;4.356;2022-09-30T01:16:52;11.90;99.90
22035;DHT22;11181;51.002;4.356;2022-09-30T01:19:33;11.80;99.90
22035;DHT22;11181;51.002;4.356;2022-09-30T01:28:05;11.70;99.90
22035;DHT22;11181;51.002;4.356;2022-09-30T01:30:52;11.70;99.90
22035;DHT22;11181;51.002;4.356;2022-09-30T01:33:29;11.70;99.90
22035;DHT22;11181;51.002;4.356;2022-09-30T01:36:19;11.70;99.90
22035;DHT22;11181;51.002;4.356;2022-09-30T01:38:54;11.70;99.90
22035;DHT22;11181;51.002;4.356;2022-09-30T01:41:31;11.70;99.90
22035;DHT22;11181;51.002;4.356;2022-09-30T01:44:02;11.70;99.90
22035;DHT22;11181;51.002;4.356;2022-09-30T01:46:37;11.70;99.90
22035;DHT22;11181;51.002;4.356;2022-09-30T01:49:12;11.70;99.90
22035;DHT22;11181;51.002;4.356;2022-09-30T01:51:47;11.70;99.90
22035;DHT22;11181;51.002;4.356;2022-09-30T01:54:20;11.60;99.90
22035;DHT22;11181;51.002;4.356;2022-09-30T01:56:52;11.60;99.90
22035;DHT22;11181;51.002;4.356;2022-09-30T01:59:24;11.60;99.90
22035;DHT22;11181;51.002;4.356;2022-09-30T02:01:56;11.50;99.90
22035;DHT22;11181;51.002;4.356;2022-09-30T02:04:25;11.50;99.90
22035;DHT22;11181;51.002;4.356;2022-09-30T02:06:59;11.50;99.90
22035;DHT22;11181;51.002;4.356;2022-09-30T02:09:29;11.50;99.90
22035;DHT22;11181;51.002;4.356;2022-09-30T02:12:03;11.50;99.90
22035;DHT22;11181;51.002;4.356;2022-09-30T02:14:35;11.50;99.90
22035;DHT22;11181;51.002;4.356;2022-09-30T02:17:08;11.50;99.90
22035;DHT22;11181;51.002;4.356;2022-09-30T02:19:39;11.50;99.90
22035;DHT22;11181;51.002;4.356;2022-09-30T02:22:12;11.50;99.90
22035;DHT22;11181;51.002;4.356;2022-09-30T02:24:41;11.50;99.90
22035;DHT22;11181;51.002;4.356;2022-09-30T02:27:14;11.50;99.90
22035;DHT22;11181;51.002;4.356;2022-09-30T02:29:47;11.50;99.90
22035;DHT22;11181;51.002;4.356;2022-09-30T02:32:21;11.50;99.90
22035;DHT22;11181;51.002;4.356;2022-09-30T02:34:51;11.50;99.90
22035;DHT22;11181;51.002;4.356;2022-09-30T02:37:23;11.40;99.90
22035;DHT22;11181;51.002;4.356;2022-09-30T02:39:52;11.40;99.90
22035;DHT22;11181;51.002;4.356;2022-09-30T02:42:22;11.50;99.90
22035;DHT22;11181;51.002;4.356;2022-09-30T02:44:55;11.50;99.90
22035;DHT22;11181;51.002;4.356;2022-09-30T02:47:29;11.50;99.90
22035;DHT22;11181;51.002;4.356;2022-09-30T02:50:03;11.50;99.90
22035;DHT22;11181;51.002;4.356;2022-09-30T02:52:41;11.50;99.90
22035;DHT22;11181;51.002;4.356;2022-09-30T02:55:16;11.50;99.90
22035;DHT22;11181;51.002;4.356;2022-09-30T02:57:52;11.50;99.90
22035;DHT22;11181;51.002;4.356;2022-09-30T03:00:21;11.50;99.90
22035;DHT22;11181;51.002;4.356;2022-09-30T03:02:52;11.40;99.90
22035;DHT22;11181;51.002;4.356;2022-09-30T03:05:20;11.30;99.90
22035;DHT22;11181;51.002;4.356;2022-09-30T03:07:47;11.20;99.90
22035;DHT22;11181;51.002;4.356;2022-09-30T03:10:15;11.20;99.90
22035;DHT22;11181;51.002;4.356;2022-09-30T03:12:53;11.20;99.90
22035;DHT22;11181;51.002;4.356;2022-09-30T03:15:30;11.10;99.90
22035;DHT22;11181;51.002;4.356;2022-09-30T03:18:21;11.10;99.90
22035;DHT22;11181;51.002;4.356;2022-09-30T03:21:01;11.10;99.90
22035;DHT22;11181;51.002;4.356;2022-09-30T03:23:44;11.00;99.90
22035;DHT22;11181;51.002;4.356;2022-09-30T03:26:20;11.00;99.90
22035;DHT22;11181;51.002;4.356;2022-09-30T03:29:02;11.00;99.90
22035;DHT22;11181;51.002;4.356;2022-09-30T03:31:39;11.00;99.90
22035;DHT22;11181;51.002;4.356;2022-09-30T03:34:14;10.90;99.90
22035;DHT22;11181;51.002;4.356;2022-09-30T03:36:50;10.90;99.90
22035;DHT22;11181;51.002;4.356;2022-09-30T03:39:27;10.90;99.90
22035;DHT22;11181;51.002;4.356;2022-09-30T03:41:58;10.90;99.90
22035;DHT22;11181;51.002;4.356;2022-09-30T03:44:36;11.00;99.90
22035;DHT22;11181;51.002;4.356;2022-09-30T03:47:08;11.00;99.90
22035;DHT22;11181;51.002;4.356;2022-09-30T03:49:40;11.00;99.90
22035;DHT22;11181;51.002;4.356;2022-09-30T03:52:10;11.00;99.90
22035;DHT22;11181;51.002;4.356;2022-09-30T03:54:44;11.00;99.90
22035;DHT22;11181;51.002;4.356;2022-09-30T03:57:12;10.90;99.90
22035;DHT22;11181;51.002;4.356;2022-09-30T03:59:39;10.90;99.90
22035;DHT22;11181;51.002;4.356;2022-09-30T04:02:06;10.80;99.90
22035;DHT22;11181;51.002;4.356;2022-09-30T04:04:39;10.80;99.90
22035;DHT22;11181;51.002;4.356;2022-09-30T04:07:06;10.80;99.90
22035;DHT22;11181;51.002;4.356;2022-09-30T04:09:34;10.80;99.90
22035;DHT22;11181;51.002;4.356;2022-09-30T04:12:02;10.90;99.90
22035;DHT22;11181;51.002;4.356;2022-09-30T04:14:29;10.90;99.90
22035;DHT22;11181;51.002;4.356;2022-09-30T04:16:56;10.80;99.90
22035;DHT22;11181;51.002;4.356;2022-09-30T04:19:22;10.80;99.90
22035;DHT22;11181;51.002;4.356;2022-09-30T04:21:54;10.80;99.90
22035;DHT22;11181;51.002;4.356;2022-09-30T04:24:22;10.80;99.90
22035;DHT22;11181;51.002;4.356;2022-09-30T04:26:49;10.80;99.90
22035;DHT22;11181;51.002;4.356;2022-09-30T04:29:16;10.70;99.90
22035;DHT22;11181;51.002;4.356;2022-09-30T04:31:43;10.70;99.90
22035;DHT22;11181;51.002;4.356;2022-09-30T04:34:10;10.70;99.90
22035;DHT22;11181;51.002;4.356;2022-09-30T04:36:37;10.70;99.90
22035;DHT22;11181;51.002;4.356;2022-09-30T04:39:06;10.70;99.90
22035;DHT22;11181;51.002;4.356;2022-09-30T04:41:33;10.70;99.90
22035;DHT22;11181;51.002;4.356;2022-09-30T04:44:00;10.70;99.90
22035;DHT22;11181;51.002;4.356;2022-09-30T04:46:31;10.70;99.90
22035;DHT22;11181;51.002;4.356;2022-09-30T04:49:01;10.80;99.90
22035;DHT22;11181;51.002;4.356;2022-09-30T04:51:28;10.80;99.90
22035;DHT22;11181;51.002;4.356;2022-09-30T04:53:55;10.80;99.90
22035;DHT22;11181;51.002;4.356;2022-09-30T04:56:23;10.90;99.90
22035;DHT22;11181;51.002;4.356;2022-09-30T04:58:51;10.90;99.90
22035;DHT22;11181;51.002;4.356;2022-09-30T05:01:19;10.90;99.90
22035;DHT22;11181;51.002;4.356;2022-09-30T05:03:45;10.90;99.90
22035;DHT22;11181;51.002;4.356;2022-09-30T05:06:13;10.80;99.90
22035;DHT22;11181;51.002;4.356;2022-09-30T05:08:41;10.80;99.90
22035;DHT22;11181;51.002;4.356;2022-09-30T05:11:12;10.80;99.90
22035;DHT22;11181;51.002;4.356;2022-09-30T05:13:41;10.80;99.90
22035;DHT22;11181;51.002;4.356;2022-09-30T05:16:08;10.70;99.90
22035;DHT22;11181;51.002;4.356;2022-09-30T05:18:36;10.70;99.90
22035;DHT22;11181;51.002;4.356;2022-09-30T05:21:04;10.70;99.90
22035;DHT22;11181;51.002;4.356;2022-09-30T05:23:31;10.70;99.90
22035;DHT22;11181;51.002;4.356;2022-09-30T05:25:59;10.70;99.90
22035;DHT22;11181;51.002;4.356;2022-09-30T05:28:26;10.60;99.90
22035;DHT22;11181;51.002;4.356;2022-09-30T05:30:59;10.60;99.90
22035;DHT22;11181;51.002;4.356;2022-09-30T05:33:26;10.60;99.90
22035;DHT22;11181;51.002;4.356;2022-09-30T05:35:57;10.60;99.90
22035;DHT22;11181;51.002;4.356;2022-09-30T05:38:24;10.60;99.90
22035;DHT22;11181;51.002;4.356;2022-09-30T05:40:51;10.60;99.90
22035;DHT22;11181;51.002;4.356;2022-09-30T05:43:19;10.70;99.90
22035;DHT22;11181;51.002;4.356;2022-09-30T05:45:51;10.70;99.90
22035;DHT22;11181;51.002;4.356;2022-09-30T05:48:20;10.70;99.90
22035;DHT22;11181;51.002;4.356;2022-09-30T05:50:47;10.70;99.90
22035;DHT22;11181;51.002;4.356;2022-09-30T05:53:15;10.70;99.90
22035;DHT22;11181;51.002;4.356;2022-09-30T05:55:45;10.70;99.90
22035;DHT22;11181;51.002;4.356;2022-09-30T05:58:12;10.70;99.90
22035;DHT22;11181;51.002;4.356;2022-09-30T06:00:40;10.70;99.90
22035;DHT22;11181;51.002;4.356;2022-09-30T06:03:07;10.70;99.90
22035;DHT22;11181;51.002;4.356;2022-09-30T06:05:36;10.90;99.90
22035;DHT22;11181;51.002;4.356;2022-09-30T06:08:03;11.00;99.90
22035;DHT22;11181;51.002;4.356;2022-09-30T06:10:31;11.00;99.90
22035;DHT22;11181;51.002;4.356;2022-09-30T06:12:58;11.00;99.90
22035;DHT22;11181;51.002;4.356;2022-09-30T06:15:26;11.00;99.90
22035;DHT22;11181;51.002;4.356;2022-09-30T06:17:54;11.00;99.90
22035;DHT22;11181;51.002;4.356;2022-09-30T06:20:22;11.00;99.90
22035;DHT22;11181;51.002;4.356;2022-09-30T06:22:50;11.00;99.90
22035;DHT22;11181;51.002;4.356;2022-09-30T06:25:17;11.10;99.90
22035;DHT22;11181;51.002;4.356;2022-09-30T06:27:44;11.10;99.90
22035;DHT22;11181;51.002;4.356;2022-09-30T06:30:12;11.20;99.90
22035;DHT22;11181;51.002;4.356;2022-09-30T06:32:39;11.30;99.90
22035;DHT22;11181;51.002;4.356;2022-09-30T06:35:07;11.40;99.90
22035;DHT22;11181;51.002;4.356;2022-09-30T06:37:34;11.50;99.90
22035;DHT22;11181;51.002;4.356;2022-09-30T06:40:04;11.60;99.90
22035;DHT22;11181;51.002;4.356;2022-09-30T06:42:32;11.80;99.90
22035;DHT22;11181;51.002;4.356;2022-09-30T06:44:59;11.90;99.90
22035;DHT22;11181;51.002;4.356;2022-09-30T06:47:26;12.10;99.90
22035;DHT22;11181;51.002;4.356;2022-09-30T06:49:53;12.30;99.90
22035;DHT22;11181;51.002;4.356;2022-09-30T06:52:23;12.50;99.90
22035;DHT22;11181;51.002;4.356;2022-09-30T06:54:51;12.70;99.90
22035;DHT22;11181;51.002;4.356;2022-09-30T06:57:22;13.00;99.90
22035;DHT22;11181;51.002;4.356;2022-09-30T06:59:51;13.20;99.90
22035;DHT22;11181;51.002;4.356;2022-09-30T07:02:18;13.40;99.90
22035;DHT22;11181;51.002;4.356;2022-09-30T07:04:45;13.50;99.90
22035;DHT22;11181;51.002;4.356;2022-09-30T07:07:12;13.70;99.90
22035;DHT22;11181;51.002;4.356;2022-09-30T07:09:39;13.80;99.90
22035;DHT22;11181;51.002;4.356;2022-09-30T07:12:07;14.00;99.90
22035;DHT22;11181;51.002;4.356;2022-09-30T07:14:36;14.20;99.90
22035;DHT22;11181;51.002;4.356;2022-09-30T07:17:04;14.30;99.90
22035;DHT22;11181;51.002;4.356;2022-09-30T07:19:32;14.30;99.90
22035;DHT22;11181;51.002;4.356;2022-09-30T07:21:59;14.40;99.90
22035;DHT22;11181;51.002;4.356;2022-09-30T07:24:47;14.60;99.90
22035;DHT22;11181;51.002;4.356;2022-09-30T07:27:14;14.70;99.90
22035;DHT22;11181;51.002;4.356;2022-09-30T07:29:42;14.90;99.90
22035;DHT22;11181;51.002;4.356;2022-09-30T07:32:10;15.00;99.90
22035;DHT22;11181;51.002;4.356;2022-09-30T07:34:37;15.10;99.90
22035;DHT22;11181;51.002;4.356;2022-09-30T07:37:07;15.30;99.90
22035;DHT22;11181;51.002;4.356;2022-09-30T07:39:34;15.60;99.90
22035;DHT22;11181;51.002;4.356;2022-09-30T07:42:02;15.70;99.90
22035;DHT22;11181;51.002;4.356;2022-09-30T07:44:31;15.90;99.90
22035;DHT22;11181;51.002;4.356;2022-09-30T07:46:59;16.20;99.90
22035;DHT22;11181;51.002;4.356;2022-09-30T07:49:26;16.40;99.90
22035;DHT22;11181;51.002;4.356;2022-09-30T07:51:55;16.40;99.90
22035;DHT22;11181;51.002;4.356;2022-09-30T07:54:24;16.40;99.90
22035;DHT22;11181;51.002;4.356;2022-09-30T07:56:51;16.40;99.90
22035;DHT22;11181;51.002;4.356;2022-09-30T07:59:19;16.50;99.90
22035;DHT22;11181;51.002;4.356;2022-09-30T08:01:46;16.40;99.90
22035;DHT22;11181;51.002;4.356;2022-09-30T08:04:17;16.50;99.90
22035;DHT22;11181;51.002;4.356;2022-09-30T08:06:47;16.60;99.90
22035;DHT22;11181;51.002;4.356;2022-09-30T08:09:15;16.70;99.90
22035;DHT22;11181;51.002;4.356;2022-09-30T08:11:42;16.90;99.90
22035;DHT22;11181;51.002;4.356;2022-09-30T08:14:12;17.10;99.90
22035;DHT22;11181;51.002;4.356;2022-09-30T08:16:40;17.30;99.90
22035;DHT22;11181;51.002;4.356;2022-09-30T08:19:11;17.30;99.90
22035;DHT22;11181;51.002;4.356;2022-09-30T08:21:40;17.30;99.90
22035;DHT22;11181;51.002;4.356;2022-09-30T08:24:07;17.50;99.90
22035;DHT22;11181;51.002;4.356;2022-09-30T08:26:34;17.60;99.90
22035;DHT22;11181;51.002;4.356;2022-09-30T08:29:01;17.80;99.90
22035;DHT22;11181;51.002;4.356;2022-09-30T08:31:28;18.10;99.90
22035;DHT22;11181;51.002;4.356;2022-09-30T08:33:57;18.40;99.90
22035;DHT22;11181;51.002;4.356;2022-09-30T08:36:25;18.60;99.90
22035;DHT22;11181;51.002;4.356;2022-09-30T08:38:54;18.80;99.90
22035;DHT22;11181;51.002;4.356;2022-09-30T08:41:32;19.00;99.90
22035;DHT22;11181;51.002;4.356;2022-09-30T08:44:09;19.20;99.90
22035;DHT22;11181;51.002;4.356;2022-09-30T08:46:45;19.50;99.90
22035;DHT22;11181;51.002;4.356;2022-09-30T08:49:27;19.50;99.90
22035;DHT22;11181;51.002;4.356;2022-09-30T08:51:59;19.60;99.90
22035;DHT22;11181;51.002;4.356;2022-09-30T08:54:31;19.70;99.90
22035;DHT22;11181;51.002;4.356;2022-09-30T08:57:00;19.90;99.90
22035;DHT22;11181;51.002;4.356;2022-09-30T08:59:31;20.10;99.90
22035;DHT22;11181;51.002;4.356;2022-09-30T09:02:08;20.10;99.90
22035;DHT22;11181;51.002;4.356;2022-09-30T09:04:38;20.10;99.90
22035;DHT22;11181;51.002;4.356;2022-09-30T09:07:13;20.00;99.90
22035;DHT22;11181;51.002;4.356;2022-09-30T09:09:55;20.20;99.90
22035;DHT22;11181;51.002;4.356;2022-09-30T09:12:32;20.30;99.90
22035;DHT22;11181;51.002;4.356;2022-09-30T09:15:20;20.50;99.90
22035;DHT22;11181;51.002;4.356;2022-09-30T09:18:04;20.70;99.90
22035;DHT22;11181;51.002;4.356;2022-09-30T09:20:38;20.80;99.90
22035;DHT22;11181;51.002;4.356;2022-09-30T09:23:09;20.70;99.90
22035;DHT22;11181;51.002;4.356;2022-09-30T09:25:38;20.60;99.90
22035;DHT22;11181;51.002;4.356;2022-09-30T09:28:20;20.70;99.90
22035;DHT22;11181;51.002;4.356;2022-09-30T09:30:55;21.00;99.90
22035;DHT22;11181;51.002;4.356;2022-09-30T09:33:27;21.30;99.90
22035;DHT22;11181;51.002;4.356;2022-09-30T09:36:03;21.40;99.90
22035;DHT22;11181;51.002;4.356;2022-09-30T09:38:38;21.70;99.90
22035;DHT22;11181;51.002;4.356;2022-09-30T09:41:16;22.00;99.90
22035;DHT22;11181;51.002;4.356;2022-09-30T09:43:50;22.10;99.90
22035;DHT22;11181;51.002;4.356;2022-09-30T09:46:22;22.10;99.90
22035;DHT22;11181;51.002;4.356;2022-09-30T09:52:28;22.40;99.90
22035;DHT22;11181;51.002;4.356;2022-09-30T09:54:57;22.10;99.90
22035;DHT22;11181;51.002;4.356;2022-09-30T09:57:27;22.00;99.90
22035;DHT22;11181;51.002;4.356;2022-09-30T09:59:58;21.90;99.90
22035;DHT22;11181;51.002;4.356;2022-09-30T10:02:57;21.80;99.90
22035;DHT22;11181;51.002;4.356;2022-09-30T10:05:25;21.70;99.90
22035;DHT22;11181;51.002;4.356;2022-09-30T10:08:08;21.90;99.90
22035;DHT22;11181;51.002;4.356;2022-09-30T10:10:43;21.90;99.90
22035;DHT22;11181;51.002;4.356;2022-09-30T10:13:23;22.00;99.90
22035;DHT22;11181;51.002;4.356;2022-09-30T10:15:52;22.00;99.90
22035;DHT22;11181;51.002;4.356;2022-09-30T10:18:24;22.00;99.90
22035;DHT22;11181;51.002;4.356;2022-09-30T10:20:54;21.90;99.90
22035;DHT22;11181;51.002;4.356;2022-09-30T10:23:26;21.80;99.90
22035;DHT22;11181;51.002;4.356;2022-09-30T10:26:01;21.90;99.90
22035;DHT22;11181;51.002;4.356;2022-09-30T10:28:32;22.00;99.90
22035;DHT22;11181;51.002;4.356;2022-09-30T10:31:05;22.20;99.90
22035;DHT22;11181;51.002;4.356;2022-09-30T10:33:36;22.40;99.90
22035;DHT22;11181;51.002;4.356;2022-09-30T10:36:11;22.50;99.90
22035;DHT22;11181;51.002;4.356;2022-09-30T10:38:48;22.70;99.90
22035;DHT22;11181;51.002;4.356;2022-09-30T10:41:21;22.50;99.90
22035;DHT22;11181;51.002;4.356;2022-09-30T10:43:52;22.40;99.90
22035;DHT22;11181;51.002;4.356;2022-09-30T10:46:25;22.40;99.90
22035;DHT22;11181;51.002;4.356;2022-09-30T10:48:54;22.50;99.90
22035;DHT22;11181;51.002;4.356;2022-09-30T10:51:31;22.70;99.90
22035;DHT22;11181;51.002;4.356;2022-09-30T10:54:01;22.80;99.90
22035;DHT22;11181;51.002;4.356;2022-09-30T10:56:43;22.80;99.90
22035;DHT22;11181;51.002;4.356;2022-09-30T10:59:29;22.80;99.90
22035;DHT22;11181;51.002;4.356;2022-09-30T11:02:02;22.90;99.90
22035;DHT22;11181;51.002;4.356;2022-09-30T11:04:35;22.90;99.90
22035;DHT22;11181;51.002;4.356;2022-09-30T11:07:12;22.90;99.90
22035;DHT22;11181;51.002;4.356;2022-09-30T11:09:47;23.10;99.90
22035;DHT22;11181;51.002;4.356;2022-09-30T11:12:20;23.00;99.90
22035;DHT22;11181;51.002;4.356;2022-09-30T11:14:56;22.80;99.90
22035;DHT22;11181;51.002;4.356;2022-09-30T11:17:31;23.00;99.90
22035;DHT22;11181;51.002;4.356;2022-09-30T11:20:06;23.00;99.90
22035;DHT22;11181;51.002;4.356;2022-09-30T11:22:43;23.00;99.90
22035;DHT22;11181;51.002;4.356;2022-09-30T11:25:14;23.10;99.90
22035;DHT22;11181;51.002;4.356;2022-09-30T11:27:52;23.20;99.90
22035;DHT22;11181;51.002;4.356;2022-09-30T11:30:28;23.30;99.90
22035;DHT22;11181;51.002;4.356;2022-09-30T11:35:53;23.00;99.90
22035;DHT22;11181;51.002;4.356;2022-09-30T11:38:32;23.00;99.90
22035;DHT22;11181;51.002;4.356;2022-09-30T11:41:09;22.90;99.90
22035;DHT22;11181;51.002;4.356;2022-09-30T11:43:44;22.90;99.90
22035;DHT22;11181;51.002;4.356;2022-09-30T11:49:29;23.20;99.90
22035;DHT22;11181;51.002;4.356;2022-09-30T11:52:08;23.40;99.90
22035;DHT22;11181;51.002;4.356;2022-09-30T11:54:46;23.60;99.90
22035;DHT22;11181;51.002;4.356;2022-09-30T11:57:20;23.70;99.90
22035;DHT22;11181;51.002;4.356;2022-09-30T11:59:54;23.80;99.90
22035;DHT22;11181;51.002;4.356;2022-09-30T12:02:30;23.70;99.90
22035;DHT22;11181;51.002;4.356;2022-09-30T12:05:05;23.80;99.90
22035;DHT22;11181;51.002;4.356;2022-09-30T12:07:39;23.80;99.90
22035;DHT22;11181;51.002;4.356;2022-09-30T12:10:17;23.30;99.90
22035;DHT22;11181;51.002;4.356;2022-09-30T12:12:50;23.00;99.90
22035;DHT22;11181;51.002;4.356;2022-09-30T12:15:20;22.80;99.90
22035;DHT22;11181;51.002;4.356;2022-09-30T12:17:54;22.60;99.90
22035;DHT22;11181;51.002;4.356;2022-09-30T12:20:28;22.70;99.90
22035;DHT22;11181;51.002;4.356;2022-09-30T12:23:00;22.80;99.90
22035;DHT22;11181;51.002;4.356;2022-09-30T12:25:35;22.80;99.90
22035;DHT22;11181;51.002;4.356;2022-09-30T12:28:07;22.80;99.90
22035;DHT22;11181;51.002;4.356;2022-09-30T12:30:53;22.70;99.90
22035;DHT22;11181;51.002;4.356;2022-09-30T12:33:43;22.60;99.90
22035;DHT22;11181;51.002;4.356;2022-09-30T12:36:32;22.40;99.90
22035;DHT22;11181;51.002;4.356;2022-09-30T12:42:31;22.80;99.90
22035;DHT22;11181;51.002;4.356;2022-09-30T12:45:33;22.80;99.90
22035;DHT22;11181;51.002;4.356;2022-09-30T12:48:05;22.50;99.90
22035;DHT22;11181;51.002;4.356;2022-09-30T12:50:40;22.30;99.90
22035;DHT22;11181;51.002;4.356;2022-09-30T12:53:14;22.10;99.90
22035;DHT22;11181;51.002;4.356;2022-09-30T12:55:42;22.30;99.90
22035;DHT22;11181;51.002;4.356;2022-09-30T12:58:19;22.30;99.90
22035;DHT22;11181;51.002;4.356;2022-09-30T13:00:59;22.30;99.90
22035;DHT22;11181;51.002;4.356;2022-09-30T13:03:26;22.40;99.90
22035;DHT22;11181;51.002;4.356;2022-09-30T13:06:01;22.50;99.90
22035;DHT22;11181;51.002;4.356;2022-09-30T13:09:05;22.60;99.90
22035;DHT22;11181;51.002;4.356;2022-09-30T13:11:41;22.60;99.90
22035;DHT22;11181;51.002;4.356;2022-09-30T13:14:21;22.30;99.90
22035;DHT22;11181;51.002;4.356;2022-09-30T13:17:24;22.00;99.90
22035;DHT22;11181;51.002;4.356;2022-09-30T13:19:53;22.00;99.90
22035;DHT22;11181;51.002;4.356;2022-09-30T13:22:56;22.10;99.90
22035;DHT22;11181;51.002;4.356;2022-09-30T13:25:24;22.20;99.90
22035;DHT22;11181;51.002;4.356;2022-09-30T13:27:52;22.10;99.90
22035;DHT22;11181;51.002;4.356;2022-09-30T13:30:37;22.10;99.90
22035;DHT22;11181;51.002;4.356;2022-09-30T13:33:28;22.00;99.90
22035;DHT22;11181;51.002;4.356;2022-09-30T13:36:06;21.80;99.90
22035;DHT22;11181;51.002;4.356;2022-09-30T13:38:41;21.70;99.90
22035;DHT22;11181;51.002;4.356;2022-09-30T13:41:17;21.60;99.90
22035;DHT22;11181;51.002;4.356;2022-09-30T13:43:52;21.70;99.90
22035;DHT22;11181;51.002;4.356;2022-09-30T13:46:31;21.50;99.90
22035;DHT22;11181;51.002;4.356;2022-09-30T13:49:03;21.50;99.90
22035;DHT22;11181;51.002;4.356;2022-09-30T13:51:32;21.40;99.90
22035;DHT22;11181;51.002;4.356;2022-09-30T13:54:05;21.40;99.90
22035;DHT22;11181;51.002;4.356;2022-09-30T13:56:35;21.60;99.90
22035;DHT22;11181;51.002;4.356;2022-09-30T13:59:28;21.60;99.90
22035;DHT22;11181;51.002;4.356;2022-09-30T14:05:23;21.30;99.90
22035;DHT22;11181;51.002;4.356;2022-09-30T14:08:05;20.70;99.90
22035;DHT22;11181;51.002;4.356;2022-09-30T14:10:53;20.70;99.90
22035;DHT22;11181;51.002;4.356;2022-09-30T14:13:35;20.70;99.90
22035;DHT22;11181;51.002;4.356;2022-09-30T14:16:17;20.50;99.90
22035;DHT22;11181;51.002;4.356;2022-09-30T14:19:07;20.60;99.90
22035;DHT22;11181;51.002;4.356;2022-09-30T14:21:41;20.80;99.90
22035;DHT22;11181;51.002;4.356;2022-09-30T14:24:11;20.70;99.90
22035;DHT22;11181;51.002;4.356;2022-09-30T14:27:06;20.70;99.90
22035;DHT22;11181;51.002;4.356;2022-09-30T14:29:40;20.80;99.90
22035;DHT22;11181;51.002;4.356;2022-09-30T14:32:11;20.70;99.90
22035;DHT22;11181;51.002;4.356;2022-09-30T14:34:40;20.40;99.90
22035;DHT22;11181;51.002;4.356;2022-09-30T14:37:15;20.20;99.90
22035;DHT22;11181;51.002;4.356;2022-09-30T14:39:45;20.10;99.90
22035;DHT22;11181;51.002;4.356;2022-09-30T14:42:21;20.10;99.90
22035;DHT22;11181;51.002;4.356;2022-09-30T14:44:50;19.80;99.90
22035;DHT22;11181;51.002;4.356;2022-09-30T14:47:19;19.90;99.90
22035;DHT22;11181;51.002;4.356;2022-09-30T14:49:47;19.90;99.90
22035;DHT22;11181;51.002;4.356;2022-09-30T14:52:35;19.80;99.90
22035;DHT22;11181;51.002;4.356;2022-09-30T14:55:03;19.70;99.90
22035;DHT22;11181;51.002;4.356;2022-09-30T14:57:31;19.80;99.90
22035;DHT22;11181;51.002;4.356;2022-09-30T15:00:19;20.00;99.90
22035;DHT22;11181;51.002;4.356;2022-09-30T15:02:47;19.90;99.90
22035;DHT22;11181;51.002;4.356;2022-09-30T15:05:15;20.00;99.90
22035;DHT22;11181;51.002;4.356;2022-09-30T15:07:43;20.00;99.90
22035;DHT22;11181;51.002;4.356;2022-09-30T15:10:18;20.10;99.90
22035;DHT22;11181;51.002;4.356;2022-09-30T15:12:48;20.20;99.90
22035;DHT22;11181;51.002;4.356;2022-09-30T15:15:25;20.30;99.90
22035;DHT22;11181;51.002;4.356;2022-09-30T15:17:53;20.50;99.90
22035;DHT22;11181;51.002;4.356;2022-09-30T15:20:31;20.50;99.90
22035;DHT22;11181;51.002;4.356;2022-09-30T15:23:01;20.50;99.90
22035;DHT22;11181;51.002;4.356;2022-09-30T15:25:29;20.50;99.90
22035;DHT22;11181;51.002;4.356;2022-09-30T15:27:58;20.40;99.90
22035;DHT22;11181;51.002;4.356;2022-09-30T15:30:27;20.20;99.90
22035;DHT22;11181;51.002;4.356;2022-09-30T15:32:59;20.10;99.90
22035;DHT22;11181;51.002;4.356;2022-09-30T15:35:27;19.80;99.90
22035;DHT22;11181;51.002;4.356;2022-09-30T15:38:06;19.50;99.90
22035;DHT22;11181;51.002;4.356;2022-09-30T15:40:34;19.60;99.90
22035;DHT22;11181;51.002;4.356;2022-09-30T15:43:29;19.70;99.90
22035;DHT22;11181;51.002;4.356;2022-09-30T15:46:19;19.80;99.90
22035;DHT22;11181;51.002;4.356;2022-09-30T15:48:47;19.80;99.90
22035;DHT22;11181;51.002;4.356;2022-09-30T15:51:29;19.60;99.90
22035;DHT22;11181;51.002;4.356;2022-09-30T15:53:58;19.60;99.90
22035;DHT22;11181;51.002;4.356;2022-09-30T15:56:32;19.20;99.90
22035;DHT22;11181;51.002;4.356;2022-09-30T15:59:04;19.20;99.90
22035;DHT22;11181;51.002;4.356;2022-09-30T16:01:36;19.30;99.90
22035;DHT22;11181;51.002;4.356;2022-09-30T16:04:09;19.30;99.90
22035;DHT22;11181;51.002;4.356;2022-09-30T16:06:45;19.50;99.90
22035;DHT22;11181;51.002;4.356;2022-09-30T16:09:22;19.40;99.90
22035;DHT22;11181;51.002;4.356;2022-09-30T16:12:01;19.30;99.90
22035;DHT22;11181;51.002;4.356;2022-09-30T16:14:34;19.30;99.90
22035;DHT22;11181;51.002;4.356;2022-09-30T16:17:12;19.00;99.90
22035;DHT22;11181;51.002;4.356;2022-09-30T16:19:49;18.90;99.90
22035;DHT22;11181;51.002;4.356;2022-09-30T16:25:28;18.80;99.90
22035;DHT22;11181;51.002;4.356;2022-09-30T16:27:58;18.80;99.90
22035;DHT22;11181;51.002;4.356;2022-09-30T16:30:28;18.80;99.90